Terminal Aerodrome Forecast
Issued by NWS

Home | Current Version | Previous Version | Graphics & Text | Print | Product List | Glossary On
Versions: 1 2 3 4 5 6 7 8 9 10 11 12 13 14 15
112
FTUS43 KMPX 211121
TAFAXN
TAF
KAXN 211121Z 2112/2212 14011KT P6SM SKC
     FM211500 14017G25KT P6SM SKC
     FM212200 14014G21KT P6SM BKN035
     FM220200 15012KT P6SM SCT050 PROB30 2205/2210 -TSRA BKN050CB=

USA.gov is the U.S. government's official web portal to all federal, state and local government web resources and services.